KTEX/TEX METAR and TAF weather

Enter ICAO airport designator
Station Type Date Time Source
KTEX METAR 2020/07/08 22:15 UTC NOAA

KTEX 082215Z AUTO 29007G16KT 240V330 10SM SCT110 24/M05 A3033 RMK AO2


Station Type Date Time Source
KTEX Decoded METAR 2020/07/08 22:15 UTC NOAA

Telluride, Telluride Regional Airport, CO, United States (KTEX) 37-57-14N 107-54-31W
Jul 08, 2020 - 06:15 PM EDT / 2020.07.08 2215 UTC
Wind: from the WNW (290 degrees) at 8 MPH (7 KT) gusting to 18 MPH (16 KT) (direction variable):0
Visibility: 10 mile(s):0
Sky conditions: partly cloudy
Temperature: 75 F (24 C)
Dew Point: 23 F (-5 C)
Relative Humidity: 14%
Pressure (altimeter): 30.33 in. Hg (1027 hPa)
ob: KTEX 082215Z AUTO 29007G16KT 240V330 10SM SCT110 24/M05 A3033 RMK AO2
cycle: 22

Station Type Date Time Source
KTEX TAF 2020/07/08 18:46 UTC NOAA

TAF KTEX 081744Z 0818/0918 24010G18KT P6SM SCT090
FM082000 25016G25KT P6SM FEW250
FM090200 23007KT P6SM FEW100 FEW250
FM090800 14005KT P6SM SKC

Example: see airport list